createdAt,value
2018-12-01T00:01:20.382Z,7.07
2018-12-01T00:03:57.354Z,7.03
2018-12-01T00:06:36.434Z,6.97
2018-12-01T00:09:15.702Z,6.93
2018-12-01T00:11:51.454Z,6.91
2018-12-01T00:14:28.215Z,6.89
2018-12-01T00:17:05.883Z,6.85
2018-12-01T00:19:42.700Z,6.83
2018-12-01T00:22:21.482Z,6.82
2018-12-01T00:24:57.479Z,6.79
2018-12-01T00:27:35.098Z,6.77
2018-12-01T00:30:17.138Z,6.76
2018-12-01T00:32:54.701Z,6.77
2018-12-01T00:35:31.339Z,6.79
2018-12-01T00:38:07.787Z,6.78
2018-12-01T00:40:44.294Z,6.78
2018-12-01T00:43:23.696Z,6.77
2018-12-01T00:46:00.150Z,6.75
2018-12-01T00:48:37.044Z,6.75
2018-12-01T00:51:11.885Z,6.72
2018-12-01T00:53:51.027Z,6.69
2018-12-01T00:56:29.324Z,6.65
2018-12-01T00:59:07.033Z,6.62
2018-12-01T01:01:45.263Z,6.60
2018-12-01T01:04:22.799Z,6.57
2018-12-01T01:06:59.895Z,6.56
2018-12-01T01:09:38.376Z,6.51
2018-12-01T01:12:15.618Z,6.49
2018-12-01T01:14:53.057Z,6.48
2018-12-01T01:17:29.719Z,6.48
2018-12-01T01:20:09.116Z,6.50
2018-12-01T01:22:46.367Z,6.48
2018-12-01T01:25:24.566Z,6.47
2018-12-01T01:28:01.299Z,6.51
2018-12-01T01:30:31.459Z,6.47
2018-12-01T01:33:17.653Z,6.45
2018-12-01T01:35:47.064Z,6.40
2018-12-01T01:38:16.377Z,6.41
2018-12-01T01:40:45.776Z,6.42
2018-12-01T01:43:15.079Z,6.41
2018-12-01T01:45:44.454Z,6.39
2018-12-01T01:48:13.755Z,6.37
2018-12-01T01:53:28.802Z,6.40
2018-12-01T01:55:58.128Z,6.37
2018-12-01T01:58:30.558Z,6.35
2018-12-01T02:00:59.894Z,6.31
2018-12-01T02:03:29.213Z,6.32
2018-12-01T02:05:58.550Z,6.30
2018-12-01T02:08:27.853Z,6.28
2018-12-01T02:10:57.164Z,6.27
2018-12-01T02:13:26.484Z,6.25
2018-12-01T02:16:02.286Z,6.26
2018-12-01T02:18:31.630Z,6.24
2018-12-01T02:21:01.021Z,6.24
2018-12-01T02:23:30.356Z,6.26
2018-12-01T02:25:59.731Z,6.25
2018-12-01T02:28:29.044Z,6.24
2018-12-01T02:30:58.429Z,6.19
2018-12-01T02:33:27.760Z,6.17
2018-12-01T02:35:57.087Z,6.16
2018-12-01T02:38:26.633Z,6.14
2018-12-01T02:40:55.978Z,6.12
2018-12-01T02:43:25.359Z,6.12
2018-12-01T02:46:11.601Z,6.09
2018-12-01T02:48:40.925Z,6.10
2018-12-01T02:51:10.251Z,6.12
2018-12-01T02:53:39.568Z,6.14
2018-12-01T02:56:08.879Z,6.16
2018-12-01T02:58:38.200Z,6.17
2018-12-01T03:01:07.526Z,6.16
2018-12-01T03:03:36.836Z,6.12
2018-12-01T03:06:06.205Z,6.13
2018-12-01T03:08:35.521Z,6.15
2018-12-01T03:11:06.068Z,6.18
2018-12-01T03:13:35.377Z,6.20
2018-12-01T03:16:06.353Z,6.19
2018-12-01T03:18:35.663Z,6.21
2018-12-01T03:21:06.673Z,6.23
2018-12-01T03:23:36.047Z,6.25
2018-12-01T03:26:07.510Z,6.24
2018-12-01T03:28:36.829Z,6.25
2018-12-01T03:31:06.176Z,6.26
2018-12-01T03:33:35.561Z,6.31
2018-12-01T03:36:06.280Z,6.38
2018-12-01T03:38:35.581Z,6.44
2018-12-01T03:41:06.147Z,6.53
2018-12-01T03:43:35.470Z,6.60
2018-12-01T03:46:06.347Z,6.66
2018-12-01T03:48:35.645Z,6.72
2018-12-01T03:51:06.362Z,6.75
2018-12-01T03:53:35.676Z,6.79
2018-12-01T03:56:06.273Z,6.83
2018-12-01T03:58:35.583Z,6.86
2018-12-01T04:01:06.214Z,6.92
2018-12-01T04:03:35.556Z,6.95
2018-12-01T04:06:06.159Z,6.98
2018-12-01T04:08:35.478Z,6.98
2018-12-01T04:11:04.784Z,6.95
2018-12-01T04:13:34.084Z,6.97
2018-12-01T04:16:03.447Z,7.00
2018-12-01T04:18:32.761Z,7.02
2018-12-01T04:21:02.204Z,7.04
2018-12-01T04:23:31.557Z,7.04
2018-12-01T04:26:00.884Z,7.04
2018-12-01T04:28:30.209Z,7.05
2018-12-01T04:30:59.515Z,7.05
2018-12-01T04:33:28.876Z,7.07
2018-12-01T04:35:58.188Z,7.08
2018-12-01T04:38:27.566Z,7.07
2018-12-01T04:40:56.889Z,7.05
2018-12-01T04:43:26.211Z,7.02
2018-12-01T04:45:55.537Z,7.01
2018-12-01T04:48:24.855Z,6.98
2018-12-01T04:50:54.159Z,6.96
2018-12-01T04:53:23.486Z,6.93
2018-12-01T04:55:52.824Z,6.88
2018-12-01T04:58:22.152Z,6.84
2018-12-01T05:00:51.480Z,6.82
2018-12-01T05:03:20.812Z,6.79
2018-12-01T05:05:50.144Z,6.74
2018-12-01T05:08:19.454Z,6.68
2018-12-01T05:10:48.770Z,6.63
2018-12-01T05:13:18.093Z,6.62
2018-12-01T05:15:47.446Z,6.65
2018-12-01T05:18:16.775Z,6.70
2018-12-01T05:20:46.139Z,6.72
2018-12-01T05:23:15.455Z,6.74
2018-12-01T05:25:44.812Z,6.75
2018-12-01T05:28:14.126Z,6.76
2018-12-01T05:30:43.468Z,6.75
2018-12-01T05:33:12.904Z,6.70
2018-12-01T05:35:42.276Z,6.69
2018-12-01T05:38:11.605Z,6.67
2018-12-01T05:40:41.010Z,6.66
2018-12-01T05:43:10.368Z,6.66
2018-12-01T05:45:39.702Z,6.68
2018-12-01T05:48:09.023Z,6.69
2018-12-01T05:50:38.404Z,6.72
2018-12-01T05:53:07.714Z,6.75
2018-12-01T05:55:37.085Z,6.76
2018-12-01T05:58:06.790Z,6.80
2018-12-01T06:00:36.183Z,6.82
2018-12-01T06:03:07.646Z,6.84
2018-12-01T06:05:37.000Z,6.87
2018-12-01T06:08:07.354Z,6.91
2018-12-01T06:10:36.677Z,6.93
2018-12-01T06:13:06.192Z,6.95
2018-12-01T06:15:35.504Z,6.99
2018-12-01T06:18:06.540Z,6.97
2018-12-01T06:20:35.885Z,7.00
2018-12-01T06:23:06.730Z,6.99
2018-12-01T06:25:36.082Z,6.99
2018-12-01T06:28:06.515Z,6.99
2018-12-01T06:30:35.822Z,6.99
2018-12-01T06:33:06.592Z,7.01
2018-12-01T06:35:35.979Z,7.00
2018-12-01T06:38:07.248Z,6.97
2018-12-01T06:40:36.580Z,6.93
2018-12-01T06:43:06.601Z,6.89
2018-12-01T06:45:35.941Z,6.89
2018-12-01T06:48:06.301Z,6.88
2018-12-01T06:50:35.630Z,6.88
2018-12-01T06:53:04.939Z,6.88
2018-12-01T06:55:35.971Z,6.90
2018-12-01T06:58:05.985Z,6.94
2018-12-01T07:00:35.290Z,6.96
2018-12-01T07:03:06.101Z,6.98
2018-12-01T07:05:35.431Z,6.97
2018-12-01T07:08:06.113Z,6.95
2018-12-01T07:10:35.472Z,6.93
2018-12-01T07:13:07.303Z,6.86
2018-12-01T07:15:38.523Z,6.87
2018-12-01T07:18:24.894Z,6.84
2018-12-01T07:20:54.220Z,6.81
2018-12-01T07:23:23.630Z,6.77
2018-12-01T07:25:52.971Z,6.74
2018-12-01T07:28:22.310Z,6.70
2018-12-01T07:30:51.682Z,6.67
2018-12-01T07:33:20.998Z,6.64
2018-12-01T07:35:50.284Z,6.64
2018-12-01T07:38:19.628Z,6.64
2018-12-01T07:40:48.973Z,6.64
2018-12-01T07:43:18.315Z,6.64
2018-12-01T07:45:47.761Z,6.63
2018-12-01T07:48:17.088Z,6.62
2018-12-01T07:50:46.396Z,6.61
2018-12-01T07:53:17.521Z,6.59
2018-12-01T07:55:45.244Z,6.58
2018-12-01T07:58:14.567Z,6.56
2018-12-01T08:00:43.926Z,6.55
2018-12-01T08:03:13.297Z,6.55
2018-12-01T08:05:42.615Z,6.56
2018-12-01T08:08:11.984Z,6.58
2018-12-01T08:10:41.312Z,6.59
2018-12-01T08:13:10.624Z,6.61
2018-12-01T08:15:39.952Z,6.60
2018-12-01T08:18:09.269Z,6.60
2018-12-01T08:20:38.595Z,6.60
2018-12-01T08:23:07.917Z,6.61
2018-12-01T08:25:37.247Z,6.63
2018-12-01T08:28:08.726Z,6.63
2018-12-01T08:30:38.124Z,6.66
2018-12-01T08:33:07.476Z,6.70
2018-12-01T08:35:36.805Z,6.75
2018-12-01T08:38:06.285Z,6.78
2018-12-01T08:40:35.977Z,6.83
2018-12-01T08:43:06.574Z,6.87
2018-12-01T08:45:35.907Z,6.89
2018-12-01T08:48:07.581Z,6.89
2018-12-01T08:50:37.658Z,6.88
2018-12-01T08:53:07.190Z,6.87
2018-12-01T08:55:36.510Z,6.88
2018-12-01T08:58:06.402Z,6.92
2018-12-01T09:00:42.541Z,6.93
2018-12-01T09:03:26.273Z,6.96
2018-12-01T09:05:56.914Z,6.98
2018-12-01T09:08:26.709Z,7.01
2018-12-01T09:10:56.101Z,7.04
2018-12-01T09:13:25.459Z,7.08
2018-12-01T09:15:54.827Z,7.14
2018-12-01T09:18:24.147Z,7.20
2018-12-01T09:20:53.500Z,7.28
2018-12-01T09:23:22.846Z,7.40
2018-12-01T09:25:52.186Z,7.50
2018-12-01T09:28:21.538Z,7.57
2018-12-01T09:30:50.967Z,7.58
2018-12-01T09:33:20.321Z,7.58
2018-12-01T09:35:49.693Z,7.57
2018-12-01T09:38:19.077Z,7.55
2018-12-01T09:40:48.456Z,7.52
2018-12-01T09:43:17.968Z,7.49
2018-12-01T09:45:47.301Z,7.48
2018-12-01T09:48:16.677Z,7.46
2018-12-01T09:50:46.055Z,7.48
2018-12-01T09:53:15.394Z,7.52
2018-12-01T09:55:44.727Z,7.61
2018-12-01T09:58:14.073Z,7.77
2018-12-01T10:00:43.437Z,7.93
2018-12-01T10:03:12.765Z,8.11
2018-12-01T10:05:42.120Z,8.17
2018-12-01T10:08:11.447Z,8.19
2018-12-01T10:10:40.768Z,8.21
2018-12-01T10:13:10.076Z,8.24
2018-12-01T10:15:39.388Z,8.29
2018-12-01T10:18:09.875Z,8.33
2018-12-01T10:20:39.250Z,8.40
2018-12-01T10:23:12.193Z,8.46
2018-12-01T10:25:41.585Z,8.48
2018-12-01T10:28:11.812Z,8.51
2018-12-01T10:30:41.220Z,8.55
2018-12-01T10:33:10.561Z,8.60
2018-12-01T10:35:39.913Z,8.65
2018-12-01T10:38:15.728Z,8.29
2018-12-01T10:40:45.154Z,8.75
2018-12-01T10:43:14.505Z,8.82
2018-12-01T10:45:43.852Z,8.92
2018-12-01T10:48:13.216Z,9.06
2018-12-01T10:50:42.556Z,9.18
2018-12-01T10:53:11.892Z,9.26
2018-12-01T10:55:41.208Z,9.29
2018-12-01T10:58:19.235Z,9.32
2018-12-01T11:00:55.305Z,9.33
2018-12-01T11:03:34.096Z,9.34
2018-12-01T11:06:11.183Z,9.36
2018-12-01T11:08:47.252Z,9.39
2018-12-01T11:11:16.569Z,9.42
2018-12-01T11:13:45.949Z,9.46
2018-12-01T11:16:15.274Z,9.50
2018-12-01T11:18:44.677Z,9.57
2018-12-01T11:21:14.069Z,9.68
2018-12-01T11:23:43.402Z,9.80
2018-12-01T11:26:12.856Z,9.95
2018-12-01T11:28:42.212Z,10.05
2018-12-01T11:31:11.593Z,10.13
2018-12-01T11:33:40.952Z,10.21
2018-12-01T11:36:10.288Z,10.23
2018-12-01T11:38:39.643Z,10.26
2018-12-01T11:41:09.011Z,10.25
2018-12-01T11:43:38.471Z,10.30
2018-12-01T11:46:07.837Z,10.36
2018-12-01T11:48:37.169Z,10.40
2018-12-01T11:51:06.700Z,10.44
2018-12-01T11:53:36.076Z,10.51
2018-12-01T11:56:06.694Z,10.57
2018-12-01T11:58:36.195Z,10.62
2018-12-01T12:01:06.786Z,10.67
2018-12-01T12:03:36.156Z,10.68
2018-12-01T12:06:06.072Z,10.69
2018-12-01T12:08:35.461Z,10.64
2018-12-01T12:11:06.117Z,10.60
2018-12-01T12:13:35.464Z,10.60
2018-12-01T12:16:06.702Z,10.64
2018-12-01T12:18:36.043Z,10.73
2018-12-01T12:21:06.364Z,10.83
2018-12-01T12:23:37.015Z,10.89
2018-12-01T12:26:06.477Z,11.00
2018-12-01T12:28:35.810Z,11.05
2018-12-01T12:31:06.063Z,11.06
2018-12-01T12:33:35.402Z,11.09
2018-12-01T12:36:06.357Z,11.08
2018-12-01T12:38:35.852Z,11.03
2018-12-01T12:41:06.883Z,10.98
2018-12-01T12:43:36.309Z,10.92
2018-12-01T12:46:06.533Z,10.88
2018-12-01T12:48:35.897Z,10.88
2018-12-01T12:51:06.440Z,10.90
2018-12-01T12:53:35.773Z,10.90
2018-12-01T12:56:05.393Z,10.87
2018-12-01T12:58:34.739Z,10.83
2018-12-01T13:01:04.141Z,10.81
2018-12-01T13:03:33.479Z,10.80
2018-12-01T13:06:02.916Z,10.79
2018-12-01T13:08:32.324Z,10.79
2018-12-01T13:11:01.687Z,10.75
2018-12-01T13:13:31.098Z,10.74
2018-12-01T13:16:00.497Z,10.73
2018-12-01T13:18:29.832Z,10.69
2018-12-01T13:20:59.182Z,10.67
2018-12-01T13:23:28.499Z,10.64
2018-12-01T13:25:57.858Z,10.63
2018-12-01T13:28:27.203Z,10.56
2018-12-01T13:30:59.411Z,10.54
2018-12-01T13:33:29.127Z,10.52
2018-12-01T13:36:01.762Z,10.50
2018-12-01T13:38:32.981Z,10.51
2018-12-01T13:41:06.218Z,10.53
2018-12-01T13:43:37.944Z,10.75
2018-12-01T13:46:09.432Z,10.68
2018-12-01T13:48:38.777Z,10.64
2018-12-01T13:51:10.871Z,10.62
2018-12-01T13:53:43.186Z,10.62
2018-12-01T13:56:12.568Z,10.60
2018-12-01T13:58:41.924Z,10.58
2018-12-01T14:01:11.345Z,10.57
2018-12-01T14:03:40.693Z,10.55
2018-12-01T14:06:10.042Z,10.54
2018-12-01T14:08:42.173Z,10.51
2018-12-01T14:11:14.522Z,10.48
2018-12-01T14:13:46.750Z,10.45
2018-12-01T14:16:18.830Z,10.42
2018-12-01T14:18:51.355Z,10.37
2018-12-01T14:21:22.540Z,10.33
2018-12-01T14:23:51.877Z,10.29
2018-12-01T14:26:21.269Z,10.26
2018-12-01T14:28:50.624Z,10.21
2018-12-01T14:31:22.689Z,10.18
2018-12-01T14:33:54.524Z,10.14
2018-12-01T14:36:26.319Z,10.11
2018-12-01T14:38:57.876Z,10.06
2018-12-01T14:41:30.423Z,10.02
2018-12-01T14:44:02.434Z,9.97
2018-12-01T14:46:34.833Z,9.93
2018-12-01T14:49:04.165Z,9.87
2018-12-01T14:51:33.540Z,9.83
2018-12-01T14:54:02.912Z,9.78
2018-12-01T14:56:32.269Z,9.75
2018-12-01T14:59:01.660Z,9.69
2018-12-01T15:01:34.096Z,9.66
2018-12-01T15:04:06.489Z,9.62
2018-12-01T15:06:38.945Z,9.58
2018-12-01T15:09:12.770Z,9.54
2018-12-01T15:11:45.318Z,9.50
2018-12-01T15:14:17.398Z,9.48
2018-12-01T15:16:49.717Z,9.45
2018-12-01T15:19:22.154Z,9.43
2018-12-01T15:21:54.773Z,9.40
2018-12-01T15:24:27.334Z,9.19
2018-12-01T15:26:56.689Z,9.35
2018-12-01T15:29:29.244Z,9.32
2018-12-01T15:31:58.604Z,9.31
2018-12-01T15:34:27.916Z,9.28
2018-12-01T15:36:57.233Z,9.27
2018-12-01T15:39:29.482Z,9.22
2018-12-01T15:41:58.824Z,9.20
2018-12-01T15:44:28.183Z,9.17
2018-12-01T15:47:03.622Z,9.14
2018-12-01T15:49:32.981Z,9.11
2018-12-01T15:52:02.300Z,9.10
2018-12-01T15:54:31.863Z,9.12
2018-12-01T15:57:01.543Z,9.13
2018-12-01T15:59:31.081Z,9.17
2018-12-01T16:04:32.241Z,9.26
2018-12-01T16:07:01.880Z,9.30
2018-12-01T16:09:34.627Z,9.33
2018-12-01T16:12:08.089Z,9.36
2018-12-01T16:14:37.723Z,9.38
2018-12-01T16:17:10.264Z,9.39
2018-12-01T16:19:42.771Z,9.40
2018-12-01T16:22:15.297Z,9.40
2018-12-01T16:24:47.678Z,9.39
2018-12-01T16:27:21.587Z,9.40
2018-12-01T16:29:50.352Z,9.42
2018-12-01T16:32:20.584Z,9.42
2018-12-01T16:34:50.145Z,9.41
2018-12-01T16:37:22.682Z,9.39
2018-12-01T16:39:54.976Z,9.42
2018-12-01T16:42:27.679Z,9.42
2018-12-01T16:45:00.123Z,9.42
2018-12-01T16:47:32.273Z,9.44
2018-12-01T16:50:04.581Z,9.44
2018-12-01T16:52:34.084Z,9.43
2018-12-01T16:55:03.609Z,9.44
2018-12-01T16:57:33.202Z,9.47
2018-12-01T17:00:02.708Z,9.45
2018-12-01T17:02:32.210Z,9.46
2018-12-01T17:05:01.717Z,9.49
2018-12-01T17:07:31.222Z,9.48
2018-12-01T17:10:00.725Z,9.50
2018-12-01T17:12:30.305Z,9.50
2018-12-01T17:15:00.037Z,9.54
2018-12-01T17:17:29.655Z,9.55
2018-12-01T17:19:59.328Z,9.53
2018-12-01T17:22:28.957Z,9.55
2018-12-01T17:24:58.506Z,9.53
2018-12-01T17:27:28.083Z,9.52
2018-12-01T17:29:57.576Z,9.51
2018-12-01T17:32:27.162Z,9.49
2018-12-01T17:34:56.696Z,9.47
2018-12-01T17:37:26.681Z,9.44
2018-12-01T17:39:56.318Z,9.46
2018-12-01T17:42:25.866Z,9.43
2018-12-01T17:44:55.429Z,9.43
2018-12-01T17:47:25.115Z,9.38
2018-12-01T17:49:55.310Z,9.42
2018-12-01T17:53:27.474Z,9.40
2018-12-01T17:55:56.935Z,9.37
2018-12-01T17:58:26.439Z,9.39
2018-12-01T18:00:55.890Z,9.37
2018-12-01T18:03:25.601Z,9.37
2018-12-01T18:05:55.156Z,9.36
2018-12-01T18:08:25.033Z,9.35
2018-12-01T18:10:55.617Z,9.35
2018-12-01T18:13:27.598Z,9.36
2018-12-01T18:15:57.201Z,9.36
2018-12-01T18:18:26.877Z,9.35
2018-12-01T18:20:56.535Z,9.33
2018-12-01T18:23:26.124Z,9.31
2018-12-01T18:25:56.629Z,9.32
2018-12-01T18:28:45.460Z,9.31
2018-12-01T18:31:20.917Z,9.28
2018-12-01T18:34:12.352Z,9.26
2018-12-01T18:36:41.964Z,9.21
2018-12-01T18:39:16.218Z,9.23
2018-12-01T18:41:45.983Z,9.23
2018-12-01T18:44:15.604Z,9.24
2018-12-01T18:46:45.350Z,9.23
2018-12-01T18:49:15.206Z,9.23
2018-12-01T18:54:20.472Z,9.28
2018-12-01T18:56:50.115Z,9.26
2018-12-01T18:59:20.069Z,9.25
2018-12-01T19:01:52.365Z,9.22
2018-12-01T19:04:21.976Z,9.18
2018-12-01T19:06:51.591Z,9.17
2018-12-01T19:09:21.236Z,9.18
2018-12-01T19:11:50.894Z,9.18
2018-12-01T19:14:20.443Z,9.16
2018-12-01T19:16:50.027Z,9.18
2018-12-01T19:19:19.697Z,9.18
2018-12-01T19:21:49.216Z,9.19
2018-12-01T19:24:18.734Z,9.19
2018-12-01T19:26:48.335Z,9.17
2018-12-01T19:29:17.838Z,9.18
2018-12-01T19:31:47.438Z,9.21
2018-12-01T19:34:16.993Z,9.21
2018-12-01T19:39:20.465Z,9.23
2018-12-01T19:41:50.149Z,9.23
2018-12-01T19:47:01.002Z,9.29
2018-12-01T19:49:30.755Z,9.29
2018-12-01T19:52:00.322Z,9.28
2018-12-01T19:54:29.892Z,9.29
2018-12-01T19:56:59.401Z,9.28
2018-12-01T19:59:29.038Z,9.30
2018-12-01T20:01:58.928Z,9.30
2018-12-01T20:04:28.515Z,9.31
2018-12-01T20:06:58.224Z,9.31
2018-12-01T20:09:27.777Z,9.31
2018-12-01T20:11:57.418Z,9.31
2018-12-01T20:14:27.057Z,9.32
2018-12-01T20:16:57.722Z,9.31
2018-12-01T20:19:28.412Z,9.34
2018-12-01T20:21:57.996Z,9.54
2018-12-01T20:24:27.371Z,9.49
2018-12-01T20:26:57.135Z,9.45
2018-12-01T20:29:26.681Z,9.42
2018-12-01T20:31:56.332Z,9.41
2018-12-01T20:34:26.033Z,9.39
2018-12-01T20:37:10.794Z,9.38
2018-12-01T20:39:43.644Z,9.38
2018-12-01T20:42:13.258Z,9.37
2018-12-01T20:44:42.821Z,9.49
2018-12-01T20:47:12.363Z,9.45
2018-12-01T20:49:41.940Z,9.44
2018-12-01T20:52:11.536Z,9.43
2018-12-01T20:54:45.693Z,9.43
2018-12-01T20:57:20.964Z,9.43
2018-12-01T20:59:50.571Z,9.41
2018-12-01T21:02:20.189Z,9.38
2018-12-01T21:04:49.805Z,9.38
2018-12-01T21:07:19.414Z,9.37
2018-12-01T21:09:48.919Z,9.35
2018-12-01T21:12:18.912Z,9.34
2018-12-01T21:14:48.445Z,9.35
2018-12-01T21:17:17.950Z,9.36
2018-12-01T21:19:47.777Z,9.37
2018-12-01T21:22:17.364Z,9.37
2018-12-01T21:24:46.846Z,9.37
2018-12-01T21:27:16.397Z,9.37
2018-12-01T21:29:45.994Z,9.37
2018-12-01T21:32:15.597Z,9.36
2018-12-01T21:34:45.157Z,9.35
2018-12-01T21:37:14.705Z,9.37
2018-12-01T21:39:44.231Z,9.39
2018-12-01T21:42:13.908Z,9.38
2018-12-01T21:44:43.471Z,9.39
2018-12-01T21:47:13.036Z,9.40
2018-12-01T21:49:42.548Z,9.39
2018-12-01T21:54:42.464Z,9.45
2018-12-01T21:57:11.985Z,9.47
2018-12-01T21:59:41.585Z,9.47
2018-12-01T22:02:11.233Z,9.47
2018-12-01T22:04:40.770Z,9.51
2018-12-01T22:07:10.397Z,9.52
2018-12-01T22:09:39.986Z,9.53
2018-12-01T22:12:09.529Z,9.55
2018-12-01T22:14:39.217Z,9.55
2018-12-01T22:17:09.182Z,9.57
2018-12-01T22:19:39.270Z,9.56
2018-12-01T22:22:08.961Z,9.58
2018-12-01T22:24:38.472Z,9.57
2018-12-01T22:27:08.180Z,9.62
2018-12-01T22:29:37.763Z,9.63
2018-12-01T22:32:07.591Z,9.64
2018-12-01T22:34:37.307Z,9.63
2018-12-01T22:37:06.930Z,9.64
2018-12-01T22:39:36.606Z,9.64
2018-12-01T22:42:06.543Z,9.63
2018-12-01T22:44:37.217Z,9.66
2018-12-01T22:47:07.091Z,9.65
2018-12-01T22:49:36.697Z,9.66
2018-12-01T22:52:06.518Z,9.67
2018-12-01T22:54:37.134Z,9.69
2018-12-01T22:57:07.005Z,9.68
2018-12-01T22:59:36.350Z,9.70
2018-12-01T23:02:06.476Z,9.69
2018-12-01T23:04:35.810Z,9.69
2018-12-01T23:07:06.532Z,9.71
2018-12-01T23:09:35.840Z,9.71
2018-12-01T23:12:06.704Z,9.73
2018-12-01T23:14:36.046Z,9.72
2018-12-01T23:17:06.233Z,9.73
2018-12-01T23:19:35.553Z,9.75
2018-12-01T23:22:06.188Z,9.76
2018-12-01T23:24:35.592Z,9.77
2018-12-01T23:27:06.253Z,9.77
2018-12-01T23:29:35.572Z,9.78
2018-12-01T23:32:06.885Z,9.78
2018-12-01T23:34:36.184Z,9.79
2018-12-01T23:37:06.808Z,9.79
2018-12-01T23:39:36.191Z,9.79
2018-12-01T23:42:09.236Z,9.79
2018-12-01T23:44:38.558Z,9.80
2018-12-01T23:47:07.892Z,9.83
2018-12-01T23:49:37.212Z,9.83
2018-12-01T23:52:09.364Z,9.83
2018-12-01T23:54:38.728Z,9.84
2018-12-01T23:57:09.027Z,9.81
2018-12-01T23:59:38.396Z,9.86
